sensor_id;sensor_type;location;lat;lon;timestamp;temperature;humidity
15638;DHT22;26604;53.596;10.042;2023-03-14T00:00:55;11.00;99.90
15638;DHT22;26604;53.596;10.042;2023-03-14T00:03:21;10.90;99.90
15638;DHT22;26604;53.596;10.042;2023-03-14T00:05:48;10.90;99.90
15638;DHT22;26604;53.596;10.042;2023-03-14T00:08:15;10.90;99.90
15638;DHT22;26604;53.596;10.042;2023-03-14T00:10:45;10.90;99.90
15638;DHT22;26604;53.596;10.042;2023-03-14T00:13:12;10.90;99.90
15638;DHT22;26604;53.596;10.042;2023-03-14T00:15:40;10.90;99.90
15638;DHT22;26604;53.596;10.042;2023-03-14T00:18:07;10.90;99.90
15638;DHT22;26604;53.596;10.042;2023-03-14T00:20:34;10.90;99.90
15638;DHT22;26604;53.596;10.042;2023-03-14T00:23:00;10.90;99.90
15638;DHT22;26604;53.596;10.042;2023-03-14T00:25:27;10.90;99.90
15638;DHT22;26604;53.596;10.042;2023-03-14T00:27:54;10.90;99.90
15638;DHT22;26604;53.596;10.042;2023-03-14T00:30:21;10.80;99.90
15638;DHT22;26604;53.596;10.042;2023-03-14T00:32:49;10.90;99.90
15638;DHT22;26604;53.596;10.042;2023-03-14T00:35:16;11.00;99.90
15638;DHT22;26604;53.596;10.042;2023-03-14T00:37:42;11.00;99.90
15638;DHT22;26604;53.596;10.042;2023-03-14T00:40:09;11.00;99.90
15638;DHT22;26604;53.596;10.042;2023-03-14T00:42:36;11.00;99.90
15638;DHT22;26604;53.596;10.042;2023-03-14T00:45:03;11.00;99.90
15638;DHT22;26604;53.596;10.042;2023-03-14T00:47:30;11.00;99.90
15638;DHT22;26604;53.596;10.042;2023-03-14T00:49:58;11.00;99.90
15638;DHT22;26604;53.596;10.042;2023-03-14T00:52:25;11.10;99.90
15638;DHT22;26604;53.596;10.042;2023-03-14T00:54:51;11.10;99.90
15638;DHT22;26604;53.596;10.042;2023-03-14T00:57:18;11.20;99.90
15638;DHT22;26604;53.596;10.042;2023-03-14T00:59:44;11.20;99.90
15638;DHT22;26604;53.596;10.042;2023-03-14T01:02:11;11.20;99.90
15638;DHT22;26604;53.596;10.042;2023-03-14T01:04:38;11.20;99.90
15638;DHT22;26604;53.596;10.042;2023-03-14T01:07:06;11.20;99.90
15638;DHT22;26604;53.596;10.042;2023-03-14T01:09:33;11.30;99.90
15638;DHT22;26604;53.596;10.042;2023-03-14T01:11:59;11.40;99.90
15638;DHT22;26604;53.596;10.042;2023-03-14T01:14:26;11.40;99.90
15638;DHT22;26604;53.596;10.042;2023-03-14T01:16:53;11.50;99.90
15638;DHT22;26604;53.596;10.042;2023-03-14T01:19:19;11.50;99.90
15638;DHT22;26604;53.596;10.042;2023-03-14T01:21:46;11.50;99.90
15638;DHT22;26604;53.596;10.042;2023-03-14T01:24:14;11.50;99.90
15638;DHT22;26604;53.596;10.042;2023-03-14T01:26:41;11.50;99.90
15638;DHT22;26604;53.596;10.042;2023-03-14T01:29:07;11.60;99.90
15638;DHT22;26604;53.596;10.042;2023-03-14T01:31:34;11.60;99.90
15638;DHT22;26604;53.596;10.042;2023-03-14T01:34:01;11.60;99.90
15638;DHT22;26604;53.596;10.042;2023-03-14T01:36:28;11.60;99.90
15638;DHT22;26604;53.596;10.042;2023-03-14T01:38:54;11.50;99.90
15638;DHT22;26604;53.596;10.042;2023-03-14T01:41:23;11.60;99.90
15638;DHT22;26604;53.596;10.042;2023-03-14T01:43:50;11.50;99.90
15638;DHT22;26604;53.596;10.042;2023-03-14T01:46:19;11.50;99.90
15638;DHT22;26604;53.596;10.042;2023-03-14T01:48:47;11.40;99.90
15638;DHT22;26604;53.596;10.042;2023-03-14T01:51:16;11.30;99.90
15638;DHT22;26604;53.596;10.042;2023-03-14T01:53:44;11.30;99.90
15638;DHT22;26604;53.596;10.042;2023-03-14T01:56:11;11.20;99.90
15638;DHT22;26604;53.596;10.042;2023-03-14T01:58:40;11.10;99.90
15638;DHT22;26604;53.596;10.042;2023-03-14T02:01:08;11.20;99.90
15638;DHT22;26604;53.596;10.042;2023-03-14T02:03:36;11.20;99.90
15638;DHT22;26604;53.596;10.042;2023-03-14T02:06:04;11.30;99.90
15638;DHT22;26604;53.596;10.042;2023-03-14T02:08:32;11.30;99.90
15638;DHT22;26604;53.596;10.042;2023-03-14T02:10:59;11.30;99.90
15638;DHT22;26604;53.596;10.042;2023-03-14T02:13:26;11.20;99.90
15638;DHT22;26604;53.596;10.042;2023-03-14T02:15:54;11.20;99.90
15638;DHT22;26604;53.596;10.042;2023-03-14T02:18:21;11.10;99.90
15638;DHT22;26604;53.596;10.042;2023-03-14T02:20:48;11.00;99.90
15638;DHT22;26604;53.596;10.042;2023-03-14T02:23:20;10.90;99.90
15638;DHT22;26604;53.596;10.042;2023-03-14T02:25:51;10.80;99.90
15638;DHT22;26604;53.596;10.042;2023-03-14T02:28:20;10.70;99.90
15638;DHT22;26604;53.596;10.042;2023-03-14T02:30:47;10.70;99.90
15638;DHT22;26604;53.596;10.042;2023-03-14T02:33:15;10.60;99.90
15638;DHT22;26604;53.596;10.042;2023-03-14T02:35:43;10.60;99.90
15638;DHT22;26604;53.596;10.042;2023-03-14T02:38:13;10.50;99.90
15638;DHT22;26604;53.596;10.042;2023-03-14T02:40:41;10.40;99.90
15638;DHT22;26604;53.596;10.042;2023-03-14T02:43:08;10.50;99.90
15638;DHT22;26604;53.596;10.042;2023-03-14T02:45:38;10.60;99.90
15638;DHT22;26604;53.596;10.042;2023-03-14T02:48:06;10.50;99.90
15638;DHT22;26604;53.596;10.042;2023-03-14T02:50:33;10.50;99.90
15638;DHT22;26604;53.596;10.042;2023-03-14T02:53:01;10.50;99.90
15638;DHT22;26604;53.596;10.042;2023-03-14T02:55:27;10.60;99.90
15638;DHT22;26604;53.596;10.042;2023-03-14T02:57:54;10.60;99.90
15638;DHT22;26604;53.596;10.042;2023-03-14T03:00:33;10.70;99.90
15638;DHT22;26604;53.596;10.042;2023-03-14T03:03:09;10.70;99.90
15638;DHT22;26604;53.596;10.042;2023-03-14T03:05:35;10.80;99.90
15638;DHT22;26604;53.596;10.042;2023-03-14T03:08:02;10.90;99.90
15638;DHT22;26604;53.596;10.042;2023-03-14T03:10:29;10.90;99.90
15638;DHT22;26604;53.596;10.042;2023-03-14T03:13:04;11.00;99.90
15638;DHT22;26604;53.596;10.042;2023-03-14T03:15:31;11.10;99.90
15638;DHT22;26604;53.596;10.042;2023-03-14T03:17:57;11.10;99.90
15638;DHT22;26604;53.596;10.042;2023-03-14T03:20:25;11.10;99.90
15638;DHT22;26604;53.596;10.042;2023-03-14T03:22:52;11.20;99.90
15638;DHT22;26604;53.596;10.042;2023-03-14T03:25:19;11.20;99.90
15638;DHT22;26604;53.596;10.042;2023-03-14T03:27:46;11.20;99.90
15638;DHT22;26604;53.596;10.042;2023-03-14T03:30:12;11.30;99.90
15638;DHT22;26604;53.596;10.042;2023-03-14T03:32:39;11.30;99.90
15638;DHT22;26604;53.596;10.042;2023-03-14T03:35:06;11.30;99.90
15638;DHT22;26604;53.596;10.042;2023-03-14T03:37:34;11.30;99.90
15638;DHT22;26604;53.596;10.042;2023-03-14T03:40:01;11.30;99.90
15638;DHT22;26604;53.596;10.042;2023-03-14T03:42:30;11.30;99.90
15638;DHT22;26604;53.596;10.042;2023-03-14T03:44:56;11.40;99.90
15638;DHT22;26604;53.596;10.042;2023-03-14T03:47:23;11.40;99.90
15638;DHT22;26604;53.596;10.042;2023-03-14T03:49:50;11.40;99.90
15638;DHT22;26604;53.596;10.042;2023-03-14T03:52:16;11.40;99.90
15638;DHT22;26604;53.596;10.042;2023-03-14T03:54:44;11.50;99.90
15638;DHT22;26604;53.596;10.042;2023-03-14T03:57:17;11.50;99.90
15638;DHT22;26604;53.596;10.042;2023-03-14T03:59:44;11.50;99.90
15638;DHT22;26604;53.596;10.042;2023-03-14T04:02:11;11.50;99.90
15638;DHT22;26604;53.596;10.042;2023-03-14T04:04:37;11.50;99.90
15638;DHT22;26604;53.596;10.042;2023-03-14T04:07:04;11.50;99.90
15638;DHT22;26604;53.596;10.042;2023-03-14T04:09:31;11.50;99.90
15638;DHT22;26604;53.596;10.042;2023-03-14T04:11:59;11.40;99.90
15638;DHT22;26604;53.596;10.042;2023-03-14T04:14:26;11.40;99.90
15638;DHT22;26604;53.596;10.042;2023-03-14T04:16:52;11.30;99.90
15638;DHT22;26604;53.596;10.042;2023-03-14T04:19:20;11.30;99.90
15638;DHT22;26604;53.596;10.042;2023-03-14T04:21:46;11.30;99.90
15638;DHT22;26604;53.596;10.042;2023-03-14T04:24:13;11.30;99.90
15638;DHT22;26604;53.596;10.042;2023-03-14T04:26:40;11.30;99.90
15638;DHT22;26604;53.596;10.042;2023-03-14T04:29:08;11.20;99.90
15638;DHT22;26604;53.596;10.042;2023-03-14T04:31:35;11.20;99.90
15638;DHT22;26604;53.596;10.042;2023-03-14T04:34:01;11.20;99.90
15638;DHT22;26604;53.596;10.042;2023-03-14T04:36:28;11.10;99.90
15638;DHT22;26604;53.596;10.042;2023-03-14T04:38:54;11.20;99.90
15638;DHT22;26604;53.596;10.042;2023-03-14T04:41:21;11.10;99.90
15638;DHT22;26604;53.596;10.042;2023-03-14T04:43:48;11.10;99.90
15638;DHT22;26604;53.596;10.042;2023-03-14T04:46:16;11.10;99.90
15638;DHT22;26604;53.596;10.042;2023-03-14T04:48:42;11.10;99.90
15638;DHT22;26604;53.596;10.042;2023-03-14T04:51:09;11.20;99.90
15638;DHT22;26604;53.596;10.042;2023-03-14T04:53:36;11.20;99.90
15638;DHT22;26604;53.596;10.042;2023-03-14T04:56:03;11.20;99.90
15638;DHT22;26604;53.596;10.042;2023-03-14T04:58:30;11.20;99.90
15638;DHT22;26604;53.596;10.042;2023-03-14T05:01:01;11.20;99.90
15638;DHT22;26604;53.596;10.042;2023-03-14T05:03:29;11.30;99.90
15638;DHT22;26604;53.596;10.042;2023-03-14T05:05:56;11.30;99.90
15638;DHT22;26604;53.596;10.042;2023-03-14T05:08:24;11.30;99.90
15638;DHT22;26604;53.596;10.042;2023-03-14T05:10:54;11.20;99.90
15638;DHT22;26604;53.596;10.042;2023-03-14T05:13:20;11.20;99.90
15638;DHT22;26604;53.596;10.042;2023-03-14T05:15:47;11.20;99.90
15638;DHT22;26604;53.596;10.042;2023-03-14T05:18:15;11.20;99.90
15638;DHT22;26604;53.596;10.042;2023-03-14T05:20:43;11.20;99.90
15638;DHT22;26604;53.596;10.042;2023-03-14T05:23:10;11.30;99.90
15638;DHT22;26604;53.596;10.042;2023-03-14T05:25:37;11.10;99.90
15638;DHT22;26604;53.596;10.042;2023-03-14T05:28:04;10.90;99.90
15638;DHT22;26604;53.596;10.042;2023-03-14T05:30:30;10.60;99.90
15638;DHT22;26604;53.596;10.042;2023-03-14T05:32:59;10.40;99.90
15638;DHT22;26604;53.596;10.042;2023-03-14T05:35:25;10.20;99.90
15638;DHT22;26604;53.596;10.042;2023-03-14T05:37:53;10.10;99.90
15638;DHT22;26604;53.596;10.042;2023-03-14T05:40:20;9.90;99.90
15638;DHT22;26604;53.596;10.042;2023-03-14T05:42:47;9.90;99.90
15638;DHT22;26604;53.596;10.042;2023-03-14T05:45:20;9.80;99.90
15638;DHT22;26604;53.596;10.042;2023-03-14T05:47:47;9.70;99.90
15638;DHT22;26604;53.596;10.042;2023-03-14T05:50:15;9.70;99.90
15638;DHT22;26604;53.596;10.042;2023-03-14T05:52:41;9.60;99.90
15638;DHT22;26604;53.596;10.042;2023-03-14T05:55:10;9.60;99.90
15638;DHT22;26604;53.596;10.042;2023-03-14T05:57:36;9.50;99.90
15638;DHT22;26604;53.596;10.042;2023-03-14T06:00:05;9.50;99.90
15638;DHT22;26604;53.596;10.042;2023-03-14T06:02:31;9.50;99.90
15638;DHT22;26604;53.596;10.042;2023-03-14T06:04:58;9.50;99.90
15638;DHT22;26604;53.596;10.042;2023-03-14T06:07:25;9.50;99.90
15638;DHT22;26604;53.596;10.042;2023-03-14T06:09:51;9.50;99.90
15638;DHT22;26604;53.596;10.042;2023-03-14T06:12:20;9.50;99.90
15638;DHT22;26604;53.596;10.042;2023-03-14T06:14:46;9.60;99.90
15638;DHT22;26604;53.596;10.042;2023-03-14T06:17:15;10.50;99.90
15638;DHT22;26604;53.596;10.042;2023-03-14T06:30:28;9.80;99.90
15638;DHT22;26604;53.596;10.042;2023-03-14T06:39:09;9.90;99.90
15638;DHT22;26604;53.596;10.042;2023-03-14T06:48:04;9.90;99.90
15638;DHT22;26604;53.596;10.042;2023-03-14T06:50:31;10.00;99.90
15638;DHT22;26604;53.596;10.042;2023-03-14T06:52:58;10.10;99.90
15638;DHT22;26604;53.596;10.042;2023-03-14T06:58:27;10.10;99.90
15638;DHT22;26604;53.596;10.042;2023-03-14T07:00:54;10.20;99.90
15638;DHT22;26604;53.596;10.042;2023-03-14T07:03:24;10.20;99.90
15638;DHT22;26604;53.596;10.042;2023-03-14T07:05:50;10.20;99.90
15638;DHT22;26604;53.596;10.042;2023-03-14T07:08:35;10.20;99.90
15638;DHT22;26604;53.596;10.042;2023-03-14T07:11:03;10.30;99.90
15638;DHT22;26604;53.596;10.042;2023-03-14T07:13:30;10.30;99.90
15638;DHT22;26604;53.596;10.042;2023-03-14T07:15:57;10.30;99.90
15638;DHT22;26604;53.596;10.042;2023-03-14T07:18:25;10.40;99.90
15638;DHT22;26604;53.596;10.042;2023-03-14T07:20:51;10.50;99.90
15638;DHT22;26604;53.596;10.042;2023-03-14T07:23:18;10.50;99.90
15638;DHT22;26604;53.596;10.042;2023-03-14T07:25:45;10.50;99.90
15638;DHT22;26604;53.596;10.042;2023-03-14T07:28:11;10.60;99.90
15638;DHT22;26604;53.596;10.042;2023-03-14T07:30:38;10.60;99.90
15638;DHT22;26604;53.596;10.042;2023-03-14T07:33:05;10.70;99.90
15638;DHT22;26604;53.596;10.042;2023-03-14T07:35:33;10.70;99.90
15638;DHT22;26604;53.596;10.042;2023-03-14T07:38:00;10.80;99.90
15638;DHT22;26604;53.596;10.042;2023-03-14T07:40:26;10.80;99.90
15638;DHT22;26604;53.596;10.042;2023-03-14T07:42:53;10.90;99.90
15638;DHT22;26604;53.596;10.042;2023-03-14T07:45:20;10.90;99.90
15638;DHT22;26604;53.596;10.042;2023-03-14T07:47:47;11.00;99.90
15638;DHT22;26604;53.596;10.042;2023-03-14T07:50:14;10.90;99.90
15638;DHT22;26604;53.596;10.042;2023-03-14T07:52:42;10.90;99.90
15638;DHT22;26604;53.596;10.042;2023-03-14T07:55:08;10.80;99.90
15638;DHT22;26604;53.596;10.042;2023-03-14T07:57:35;10.80;99.90
15638;DHT22;26604;53.596;10.042;2023-03-14T08:00:02;10.70;99.90
15638;DHT22;26604;53.596;10.042;2023-03-14T08:02:30;10.70;99.90
15638;DHT22;26604;53.596;10.042;2023-03-14T08:04:57;10.80;99.90
15638;DHT22;26604;53.596;10.042;2023-03-14T08:07:24;10.80;99.90
15638;DHT22;26604;53.596;10.042;2023-03-14T08:09:52;10.90;99.90
15638;DHT22;26604;53.596;10.042;2023-03-14T08:12:18;10.90;99.90
15638;DHT22;26604;53.596;10.042;2023-03-14T08:14:45;10.90;99.90
15638;DHT22;26604;53.596;10.042;2023-03-14T08:17:12;11.00;99.90
15638;DHT22;26604;53.596;10.042;2023-03-14T08:19:39;11.00;99.90
15638;DHT22;26604;53.596;10.042;2023-03-14T08:22:07;11.10;99.90
15638;DHT22;26604;53.596;10.042;2023-03-14T08:24:34;11.30;99.90
15638;DHT22;26604;53.596;10.042;2023-03-14T08:27:02;11.40;99.90
15638;DHT22;26604;53.596;10.042;2023-03-14T08:29:29;11.50;99.90
15638;DHT22;26604;53.596;10.042;2023-03-14T08:31:55;11.40;99.90
15638;DHT22;26604;53.596;10.042;2023-03-14T08:34:22;11.40;99.90
15638;DHT22;26604;53.596;10.042;2023-03-14T08:36:49;11.40;99.90
15638;DHT22;26604;53.596;10.042;2023-03-14T08:39:15;11.50;99.90
15638;DHT22;26604;53.596;10.042;2023-03-14T08:41:42;11.50;99.90
15638;DHT22;26604;53.596;10.042;2023-03-14T08:44:11;11.60;99.90
15638;DHT22;26604;53.596;10.042;2023-03-14T08:46:37;11.50;99.90
15638;DHT22;26604;53.596;10.042;2023-03-14T08:49:04;11.40;99.90
15638;DHT22;26604;53.596;10.042;2023-03-14T08:51:31;11.40;99.90
15638;DHT22;26604;53.596;10.042;2023-03-14T08:53:58;11.50;99.90
15638;DHT22;26604;53.596;10.042;2023-03-14T08:56:24;11.50;99.90
15638;DHT22;26604;53.596;10.042;2023-03-14T08:58:51;11.50;99.90
15638;DHT22;26604;53.596;10.042;2023-03-14T09:01:19;11.40;99.90
15638;DHT22;26604;53.596;10.042;2023-03-14T09:03:49;11.30;99.90
15638;DHT22;26604;53.596;10.042;2023-03-14T09:06:16;11.30;99.90
15638;DHT22;26604;53.596;10.042;2023-03-14T09:08:43;11.30;99.90
15638;DHT22;26604;53.596;10.042;2023-03-14T09:11:10;11.40;99.90
15638;DHT22;26604;53.596;10.042;2023-03-14T09:13:36;11.30;99.90
15638;DHT22;26604;53.596;10.042;2023-03-14T09:16:04;11.30;99.90
15638;DHT22;26604;53.596;10.042;2023-03-14T09:18:32;11.30;99.90
15638;DHT22;26604;53.596;10.042;2023-03-14T09:20:58;11.20;99.90
15638;DHT22;26604;53.596;10.042;2023-03-14T09:23:25;11.10;99.90
15638;DHT22;26604;53.596;10.042;2023-03-14T09:25:54;11.10;99.90
15638;DHT22;26604;53.596;10.042;2023-03-14T09:28:20;11.10;99.90
15638;DHT22;26604;53.596;10.042;2023-03-14T09:30:47;11.10;99.90
15638;DHT22;26604;53.596;10.042;2023-03-14T09:33:14;11.10;99.90
15638;DHT22;26604;53.596;10.042;2023-03-14T09:35:43;11.10;99.90
15638;DHT22;26604;53.596;10.042;2023-03-14T09:38:09;11.10;99.90
15638;DHT22;26604;53.596;10.042;2023-03-14T09:40:36;11.20;99.90
15638;DHT22;26604;53.596;10.042;2023-03-14T09:43:03;11.20;99.90
15638;DHT22;26604;53.596;10.042;2023-03-14T09:45:31;11.20;99.90
15638;DHT22;26604;53.596;10.042;2023-03-14T09:47:59;11.40;99.90
15638;DHT22;26604;53.596;10.042;2023-03-14T09:50:29;11.60;99.90
15638;DHT22;26604;53.596;10.042;2023-03-14T09:52:59;11.70;99.90
15638;DHT22;26604;53.596;10.042;2023-03-14T09:55:28;11.70;99.90
15638;DHT22;26604;53.596;10.042;2023-03-14T09:57:56;11.60;99.90
15638;DHT22;26604;53.596;10.042;2023-03-14T10:00:26;11.30;99.90
15638;DHT22;26604;53.596;10.042;2023-03-14T10:02:55;10.60;99.90
15638;DHT22;26604;53.596;10.042;2023-03-14T10:05:23;10.10;99.90
15638;DHT22;26604;53.596;10.042;2023-03-14T10:07:50;9.70;99.90
15638;DHT22;26604;53.596;10.042;2023-03-14T10:10:19;9.30;99.90
15638;DHT22;26604;53.596;10.042;2023-03-14T10:12:46;9.00;99.90
15638;DHT22;26604;53.596;10.042;2023-03-14T10:15:14;8.80;99.90
15638;DHT22;26604;53.596;10.042;2023-03-14T10:17:44;8.70;99.90
15638;DHT22;26604;53.596;10.042;2023-03-14T10:20:26;8.50;99.90
15638;DHT22;26604;53.596;10.042;2023-03-14T10:22:57;8.50;99.90
15638;DHT22;26604;53.596;10.042;2023-03-14T10:25:27;8.30;99.90
15638;DHT22;26604;53.596;10.042;2023-03-14T10:27:54;8.10;99.90
15638;DHT22;26604;53.596;10.042;2023-03-14T10:30:29;7.90;99.90
15638;DHT22;26604;53.596;10.042;2023-03-14T10:32:56;7.60;99.90
15638;DHT22;26604;53.596;10.042;2023-03-14T10:35:23;7.40;99.90
15638;DHT22;26604;53.596;10.042;2023-03-14T10:37:51;7.30;99.90
15638;DHT22;26604;53.596;10.042;2023-03-14T10:40:20;7.00;99.90
15638;DHT22;26604;53.596;10.042;2023-03-14T10:42:52;6.80;99.90
15638;DHT22;26604;53.596;10.042;2023-03-14T10:45:31;6.60;99.90
15638;DHT22;26604;53.596;10.042;2023-03-14T10:47:59;6.50;99.90
15638;DHT22;26604;53.596;10.042;2023-03-14T10:50:27;6.40;99.90
15638;DHT22;26604;53.596;10.042;2023-03-14T10:52:54;6.40;99.90
15638;DHT22;26604;53.596;10.042;2023-03-14T10:55:22;6.20;99.90
15638;DHT22;26604;53.596;10.042;2023-03-14T10:57:49;6.00;99.90
15638;DHT22;26604;53.596;10.042;2023-03-14T11:00:20;5.90;99.90
15638;DHT22;26604;53.596;10.042;2023-03-14T11:02:55;5.70;99.90
15638;DHT22;26604;53.596;10.042;2023-03-14T11:05:25;5.70;99.90
15638;DHT22;26604;53.596;10.042;2023-03-14T11:07:55;5.70;99.90
15638;DHT22;26604;53.596;10.042;2023-03-14T11:10:24;6.90;99.90
15638;DHT22;26604;53.596;10.042;2023-03-14T11:12:56;5.70;99.90
15638;DHT22;26604;53.596;10.042;2023-03-14T11:15:30;5.60;99.90
15638;DHT22;26604;53.596;10.042;2023-03-14T11:18:05;5.60;99.90
15638;DHT22;26604;53.596;10.042;2023-03-14T11:20:38;5.80;99.90
15638;DHT22;26604;53.596;10.042;2023-03-14T11:23:11;5.50;99.90
15638;DHT22;26604;53.596;10.042;2023-03-14T11:25:40;5.60;99.90
15638;DHT22;26604;53.596;10.042;2023-03-14T11:28:09;5.60;99.90
15638;DHT22;26604;53.596;10.042;2023-03-14T11:30:43;7.10;99.90
15638;DHT22;26604;53.596;10.042;2023-03-14T11:33:14;5.50;99.90
15638;DHT22;26604;53.596;10.042;2023-03-14T11:35:43;5.40;99.90
15638;DHT22;26604;53.596;10.042;2023-03-14T11:38:13;5.20;99.90
15638;DHT22;26604;53.596;10.042;2023-03-14T11:40:40;5.40;99.90
15638;DHT22;26604;53.596;10.042;2023-03-14T11:43:10;5.30;99.90
15638;DHT22;26604;53.596;10.042;2023-03-14T11:45:38;5.30;99.90
15638;DHT22;26604;53.596;10.042;2023-03-14T11:48:13;5.50;99.90
15638;DHT22;26604;53.596;10.042;2023-03-14T11:50:42;5.60;99.90
15638;DHT22;26604;53.596;10.042;2023-03-14T11:53:09;5.60;99.90
15638;DHT22;26604;53.596;10.042;2023-03-14T11:55:38;5.70;99.90
15638;DHT22;26604;53.596;10.042;2023-03-14T11:58:09;5.90;99.90
15638;DHT22;26604;53.596;10.042;2023-03-14T12:00:38;6.00;99.90
15638;DHT22;26604;53.596;10.042;2023-03-14T12:03:09;6.10;99.90
15638;DHT22;26604;53.596;10.042;2023-03-14T12:05:40;6.20;99.90
15638;DHT22;26604;53.596;10.042;2023-03-14T12:10:55;6.20;99.90
15638;DHT22;26604;53.596;10.042;2023-03-14T12:13:23;6.20;99.90
15638;DHT22;26604;53.596;10.042;2023-03-14T12:15:55;6.10;99.90
15638;DHT22;26604;53.596;10.042;2023-03-14T12:18:25;6.30;99.90
15638;DHT22;26604;53.596;10.042;2023-03-14T12:20:54;6.20;99.90
15638;DHT22;26604;53.596;10.042;2023-03-14T12:23:22;6.20;99.90
15638;DHT22;26604;53.596;10.042;2023-03-14T12:25:58;6.20;99.90
15638;DHT22;26604;53.596;10.042;2023-03-14T12:28:32;6.20;99.90
15638;DHT22;26604;53.596;10.042;2023-03-14T12:31:12;6.20;99.90
15638;DHT22;26604;53.596;10.042;2023-03-14T12:34:02;6.20;99.90
15638;DHT22;26604;53.596;10.042;2023-03-14T12:36:51;6.20;99.90
15638;DHT22;26604;53.596;10.042;2023-03-14T12:39:20;6.30;99.90
15638;DHT22;26604;53.596;10.042;2023-03-14T12:41:51;6.50;99.90
15638;DHT22;26604;53.596;10.042;2023-03-14T12:44:37;6.50;99.90
15638;DHT22;26604;53.596;10.042;2023-03-14T12:47:26;6.40;99.90
15638;DHT22;26604;53.596;10.042;2023-03-14T12:50:12;6.40;99.90
15638;DHT22;26604;53.596;10.042;2023-03-14T12:52:41;6.30;99.90
15638;DHT22;26604;53.596;10.042;2023-03-14T12:55:12;6.30;99.90
15638;DHT22;26604;53.596;10.042;2023-03-14T12:57:41;6.40;99.90
15638;DHT22;26604;53.596;10.042;2023-03-14T13:00:16;6.50;99.90
15638;DHT22;26604;53.596;10.042;2023-03-14T13:02:44;6.30;99.90
15638;DHT22;26604;53.596;10.042;2023-03-14T13:05:15;6.30;99.90
15638;DHT22;26604;53.596;10.042;2023-03-14T13:10:28;6.30;99.90
15638;DHT22;26604;53.596;10.042;2023-03-14T13:12:56;6.30;99.90
15638;DHT22;26604;53.596;10.042;2023-03-14T13:15:25;6.30;99.90
15638;DHT22;26604;53.596;10.042;2023-03-14T13:17:53;6.40;99.90
15638;DHT22;26604;53.596;10.042;2023-03-14T13:20:24;6.50;99.90
15638;DHT22;26604;53.596;10.042;2023-03-14T13:22:53;6.60;99.90
15638;DHT22;26604;53.596;10.042;2023-03-14T13:25:19;6.70;99.90
15638;DHT22;26604;53.596;10.042;2023-03-14T13:27:48;6.90;99.90
15638;DHT22;26604;53.596;10.042;2023-03-14T13:30:15;6.90;99.90
15638;DHT22;26604;53.596;10.042;2023-03-14T13:32:43;7.00;99.90
15638;DHT22;26604;53.596;10.042;2023-03-14T13:35:14;7.10;99.90
15638;DHT22;26604;53.596;10.042;2023-03-14T13:37:43;7.10;99.90
15638;DHT22;26604;53.596;10.042;2023-03-14T13:40:18;7.30;99.90
15638;DHT22;26604;53.596;10.042;2023-03-14T13:42:45;7.20;99.90
15638;DHT22;26604;53.596;10.042;2023-03-14T13:45:12;7.30;99.90
15638;DHT22;26604;53.596;10.042;2023-03-14T13:47:39;7.30;99.90
15638;DHT22;26604;53.596;10.042;2023-03-14T13:50:11;7.30;99.90
15638;DHT22;26604;53.596;10.042;2023-03-14T13:52:39;7.30;99.90
15638;DHT22;26604;53.596;10.042;2023-03-14T13:55:14;7.30;99.90
15638;DHT22;26604;53.596;10.042;2023-03-14T13:57:45;7.20;99.90
15638;DHT22;26604;53.596;10.042;2023-03-14T14:00:19;7.30;99.90
15638;DHT22;26604;53.596;10.042;2023-03-14T14:02:46;7.30;99.90
15638;DHT22;26604;53.596;10.042;2023-03-14T14:05:14;7.30;99.90
15638;DHT22;26604;53.596;10.042;2023-03-14T14:07:40;7.30;99.90
15638;DHT22;26604;53.596;10.042;2023-03-14T14:10:11;7.20;99.90
15638;DHT22;26604;53.596;10.042;2023-03-14T14:12:39;7.10;99.90
15638;DHT22;26604;53.596;10.042;2023-03-14T14:15:09;7.00;99.90
15638;DHT22;26604;53.596;10.042;2023-03-14T14:17:38;7.00;99.90
15638;DHT22;26604;53.596;10.042;2023-03-14T14:20:05;7.10;99.90
15638;DHT22;26604;53.596;10.042;2023-03-14T14:22:33;7.10;99.90
15638;DHT22;26604;53.596;10.042;2023-03-14T14:25:00;7.10;99.90
15638;DHT22;26604;53.596;10.042;2023-03-14T14:27:29;7.10;99.90
15638;DHT22;26604;53.596;10.042;2023-03-14T14:30:02;7.00;99.90
15638;DHT22;26604;53.596;10.042;2023-03-14T14:32:34;7.00;99.90
15638;DHT22;26604;53.596;10.042;2023-03-14T14:35:01;6.90;99.90
15638;DHT22;26604;53.596;10.042;2023-03-14T14:37:29;7.10;99.90
15638;DHT22;26604;53.596;10.042;2023-03-14T14:39:57;7.10;99.90
15638;DHT22;26604;53.596;10.042;2023-03-14T14:42:25;7.30;99.90
15638;DHT22;26604;53.596;10.042;2023-03-14T14:44:54;7.20;99.90
15638;DHT22;26604;53.596;10.042;2023-03-14T14:47:22;7.10;99.90
15638;DHT22;26604;53.596;10.042;2023-03-14T14:49:51;7.60;99.90
15638;DHT22;26604;53.596;10.042;2023-03-14T14:52:18;7.10;99.90
15638;DHT22;26604;53.596;10.042;2023-03-14T14:54:46;6.80;99.90
15638;DHT22;26604;53.596;10.042;2023-03-14T14:57:18;6.80;99.90
15638;DHT22;26604;53.596;10.042;2023-03-14T14:59:47;6.80;99.90
15638;DHT22;26604;53.596;10.042;2023-03-14T15:02:26;7.00;99.90
15638;DHT22;26604;53.596;10.042;2023-03-14T15:04:53;7.00;99.90
15638;DHT22;26604;53.596;10.042;2023-03-14T15:07:20;7.00;99.90
15638;DHT22;26604;53.596;10.042;2023-03-14T15:09:47;7.10;99.90
15638;DHT22;26604;53.596;10.042;2023-03-14T15:12:13;7.10;99.90
15638;DHT22;26604;53.596;10.042;2023-03-14T15:14:40;7.20;99.90
15638;DHT22;26604;53.596;10.042;2023-03-14T15:17:08;7.10;99.90
15638;DHT22;26604;53.596;10.042;2023-03-14T15:19:37;7.00;99.90
15638;DHT22;26604;53.596;10.042;2023-03-14T15:22:04;7.20;99.90
15638;DHT22;26604;53.596;10.042;2023-03-14T15:24:31;7.10;99.90
15638;DHT22;26604;53.596;10.042;2023-03-14T15:26:58;7.20;99.90
15638;DHT22;26604;53.596;10.042;2023-03-14T15:29:25;7.10;99.90
15638;DHT22;26604;53.596;10.042;2023-03-14T15:31:51;7.00;99.90
15638;DHT22;26604;53.596;10.042;2023-03-14T15:34:18;7.00;99.90
15638;DHT22;26604;53.596;10.042;2023-03-14T15:36:46;6.90;99.90
15638;DHT22;26604;53.596;10.042;2023-03-14T15:39:13;6.80;99.90
15638;DHT22;26604;53.596;10.042;2023-03-14T15:41:40;6.90;99.90
15638;DHT22;26604;53.596;10.042;2023-03-14T15:44:07;6.70;99.90
15638;DHT22;26604;53.596;10.042;2023-03-14T15:46:34;6.70;99.90
15638;DHT22;26604;53.596;10.042;2023-03-14T15:49:00;6.70;99.90
15638;DHT22;26604;53.596;10.042;2023-03-14T15:51:27;6.70;99.90
15638;DHT22;26604;53.596;10.042;2023-03-14T15:53:55;6.70;99.90
15638;DHT22;26604;53.596;10.042;2023-03-14T15:56:22;6.60;99.90
15638;DHT22;26604;53.596;10.042;2023-03-14T15:58:51;6.50;99.90
15638;DHT22;26604;53.596;10.042;2023-03-14T16:01:18;6.50;99.90